Terminal Aerodrome Forecast
Issued by NWS

Home | Current Version | Previous Version | Text Only | Print | Product List | Glossary On
Versions: 1 2 3 4 5 6 7 8 9 10 11 12 13
042
FTUS42 TJSJ 022342
TAFJPS
TAF
TJPS 022342Z 0300/0324 05005KT P6SM SKC
     FM031300 13010G18KT P6SM FEW030 SCT060
     FM032300 05005KT P6SM SKC
      AMD NOT SKED TIL 030300=

USA.gov is the U.S. government's official web portal to all federal, state and local government web resources and services.